createdAt,value
2019-01-13T00:01:34.463Z,22.6
2019-01-13T00:06:39.572Z,22.6
2019-01-13T00:11:45.689Z,22.5
2019-01-13T00:16:49.512Z,22.5
2019-01-13T00:21:55.467Z,22.5
2019-01-13T00:27:01.004Z,22.5
2019-01-13T00:32:06.652Z,22.4
2019-01-13T00:37:11.666Z,22.3
2019-01-13T00:42:17.292Z,22.3
2019-01-13T00:52:27.047Z,22.2
2019-01-13T01:07:41.320Z,22.3
2019-01-13T01:12:47.114Z,22.3
2019-01-13T01:17:52.981Z,22.2
2019-01-13T01:22:58.058Z,22.2
2019-01-13T01:28:03.153Z,22.2
2019-01-13T01:33:08.757Z,22.2
2019-01-13T01:38:15.457Z,22.1
2019-01-13T01:43:21.055Z,22.1
2019-01-13T01:48:26.811Z,22.2
2019-01-13T01:53:32.800Z,22.2
2019-01-13T01:58:38.196Z,22.1
2019-01-13T02:03:43.955Z,22.1
2019-01-13T02:08:50.220Z,22.2
2019-01-13T02:13:56.101Z,22.1
2019-01-13T02:19:01.056Z,22.1
2019-01-13T02:24:01.240Z,22.1
2019-01-13T02:29:06.679Z,22.1
2019-01-13T02:34:12.139Z,22.1
2019-01-13T02:39:17.818Z,22.1
2019-01-13T02:44:23.467Z,22
2019-01-13T02:49:28.839Z,22.1
2019-01-13T02:54:34.956Z,22.1
2019-01-13T02:59:40.512Z,22.1
2019-01-13T03:04:45.670Z,22.1
2019-01-13T03:09:50.843Z,22.1
2019-01-13T03:14:56.034Z,22.1
2019-01-13T03:20:01.928Z,22.1
2019-01-13T03:25:08.271Z,22.1
2019-01-13T03:30:13.288Z,22.1
2019-01-13T03:35:18.391Z,22.1
2019-01-13T03:40:23.671Z,22.1
2019-01-13T03:45:29.104Z,22
2019-01-13T03:50:35.423Z,22.1
2019-01-13T03:55:41.149Z,22
2019-01-13T04:00:47.063Z,22
2019-01-13T04:05:53.218Z,22
2019-01-13T04:10:58.341Z,21.9
2019-01-13T04:16:04.893Z,22
2019-01-13T04:21:09.957Z,22
2019-01-13T04:26:16.008Z,22
2019-01-13T04:31:28.333Z,22
2019-01-13T04:36:23.501Z,22
2019-01-13T04:41:28.849Z,22
2019-01-13T04:46:34.085Z,22.1
2019-01-13T04:51:39.365Z,22.1
2019-01-13T04:56:45.109Z,22.1
2019-01-13T05:01:50.394Z,22
2019-01-13T05:06:56.219Z,22
2019-01-13T05:12:02.388Z,22.1
2019-01-13T05:17:08.210Z,22
2019-01-13T05:22:13.227Z,22.1
2019-01-13T05:27:19.028Z,22.1
2019-01-13T05:32:24.700Z,22.1
2019-01-13T05:37:30.720Z,22.2
2019-01-13T05:42:35.990Z,22.2
2019-01-13T05:47:42.033Z,22.3
2019-01-13T05:52:47.219Z,22.4
2019-01-13T05:57:52.242Z,22.4
2019-01-13T06:02:57.458Z,22.5
2019-01-13T06:08:02.898Z,22.5
2019-01-13T06:13:08.533Z,22
2019-01-13T06:18:14.403Z,20.8
2019-01-13T06:23:19.947Z,21.6
2019-01-13T06:28:24.724Z,22
2019-01-13T06:33:29.983Z,22.2
2019-01-13T06:38:35.452Z,22.4
2019-01-13T06:48:45.276Z,22.5
2019-01-13T06:53:50.422Z,22.6
2019-01-13T07:03:58.930Z,22.8
2019-01-13T07:09:04.491Z,22.8
2019-01-13T07:14:10.759Z,22.8
2019-01-13T07:19:10.420Z,22.8
2019-01-13T07:24:16.258Z,22.8
2019-01-13T07:29:22.562Z,22.9
2019-01-13T07:34:28.228Z,22.9
2019-01-13T07:39:32.759Z,23
2019-01-13T07:44:38.941Z,23
2019-01-13T07:49:44.713Z,23
2019-01-13T07:54:51.460Z,23.1
2019-01-13T07:59:57.389Z,23.1
2019-01-13T08:05:02.496Z,23.1
2019-01-13T08:10:08.627Z,23.1
2019-01-13T08:15:14.162Z,23.1
2019-01-13T08:20:19.892Z,23
2019-01-13T08:25:24.844Z,23.2
2019-01-13T08:30:30.264Z,23.2
2019-01-13T08:35:35.178Z,23.2
2019-01-13T08:40:40.501Z,23.2
2019-01-13T08:45:52.143Z,23.2
2019-01-13T08:50:47.216Z,23.2
2019-01-13T08:55:52.736Z,23.1
2019-01-13T09:00:58.244Z,23
2019-01-13T09:06:03.760Z,23
2019-01-13T09:11:09.436Z,23
2019-01-13T09:16:15.129Z,23
2019-01-13T09:21:19.457Z,22.9
2019-01-13T09:26:24.452Z,23
2019-01-13T09:36:33.728Z,23
2019-01-13T09:41:40.006Z,23.3
2019-01-13T09:46:46.053Z,23.8
2019-01-13T09:51:51.397Z,23.8
2019-01-13T09:56:56.815Z,23.3
2019-01-13T10:02:02.736Z,23.2
2019-01-13T10:07:08.460Z,23.1
2019-01-13T10:12:13.613Z,23.1
2019-01-13T10:17:19.272Z,22.1
2019-01-13T10:22:24.868Z,19.1
2019-01-13T10:27:31.085Z,21.2
2019-01-13T10:32:37.064Z,22.3
2019-01-13T10:37:42.762Z,22.5
2019-01-13T10:42:48.099Z,22.9
2019-01-13T10:47:53.291Z,23.2
2019-01-13T10:52:58.963Z,23.3
2019-01-13T10:58:04.871Z,23.2
2019-01-13T11:03:10.148Z,23.2
2019-01-13T11:08:15.352Z,23.2
2019-01-13T11:13:21.201Z,23.2
2019-01-13T11:28:36.073Z,22.9
2019-01-13T11:33:42.040Z,22.9
2019-01-13T11:38:48.434Z,21.8
2019-01-13T11:43:54.012Z,21.4
2019-01-13T11:48:59.784Z,21.3
2019-01-13T11:54:05.961Z,22.1
2019-01-13T11:59:11.493Z,22.4
2019-01-13T12:04:17.377Z,22.6
2019-01-13T12:09:22.836Z,22.7
2019-01-13T12:14:28.286Z,22.9
2019-01-13T12:19:34.264Z,22.9
2019-01-13T12:24:39.877Z,22.9
2019-01-13T12:29:45.229Z,22.9
2019-01-13T12:34:50.288Z,22.7
2019-01-13T12:39:55.472Z,22.6
2019-01-13T12:45:01.031Z,22.5
2019-01-13T12:50:06.558Z,22.6
2019-01-13T12:55:11.770Z,22.5
2019-01-13T13:00:16.972Z,22.6
2019-01-13T13:05:22.050Z,22.5
2019-01-13T13:10:27.132Z,22.5
2019-01-13T13:15:33.190Z,22.5
2019-01-13T13:20:38.318Z,22.5
2019-01-13T13:25:43.863Z,22.5
2019-01-13T13:30:48.976Z,22.5
2019-01-13T13:35:54.386Z,22.6
2019-01-13T13:40:59.492Z,22.5
2019-01-13T13:46:04.491Z,22.4
2019-01-13T13:51:09.617Z,22.4
2019-01-13T13:56:14.780Z,22.3
2019-01-13T14:01:20.106Z,22.3
2019-01-13T14:06:25.467Z,22.4
2019-01-13T14:11:30.436Z,22.5
2019-01-13T14:16:35.990Z,22.6
2019-01-13T14:21:41.210Z,22.6
2019-01-13T14:26:46.469Z,22.7
2019-01-13T14:31:51.832Z,22.9
2019-01-13T14:36:58.081Z,22.9
2019-01-13T14:42:03.325Z,23
2019-01-13T14:47:07.714Z,23
2019-01-13T14:52:13.713Z,23
2019-01-13T14:57:19.468Z,23
2019-01-13T15:02:24.957Z,23
2019-01-13T15:07:29.356Z,23
2019-01-13T15:12:34.935Z,23.1
2019-01-13T15:17:40.158Z,23.1
2019-01-13T15:22:46.161Z,23.1
2019-01-13T15:25:08.605Z,23.2
2019-01-13T15:30:14.272Z,23.2
2019-01-13T15:35:19.767Z,23.3
2019-01-13T15:40:25.154Z,23.3
2019-01-13T15:45:30.388Z,23.4
2019-01-13T15:50:35.988Z,23.5
2019-01-13T15:55:41.542Z,23.5
2019-01-13T16:00:47.390Z,23.6
2019-01-13T16:05:52.576Z,23.6
2019-01-13T16:10:58.277Z,23.6
2019-01-13T16:16:04.454Z,23.7
2019-01-13T16:21:10.344Z,23.7
2019-01-13T16:26:16.156Z,23.6
2019-01-13T16:31:21.842Z,23.6
2019-01-13T16:36:27.812Z,23.6
2019-01-13T16:41:33.557Z,23.6
2019-01-13T16:46:45.305Z,23.4
2019-01-13T16:51:41.011Z,23.4
2019-01-13T16:56:47.023Z,23.4
2019-01-13T17:01:52.631Z,23.4
2019-01-13T17:06:58.006Z,23.4
2019-01-13T17:12:03.579Z,23.3
2019-01-13T17:17:08.725Z,23.3
2019-01-13T17:27:18.756Z,23.2
2019-01-13T17:32:23.934Z,23.3
2019-01-13T17:37:29.318Z,23.2
2019-01-13T17:42:35.218Z,23.2
2019-01-13T17:52:44.547Z,23.1
2019-01-13T17:57:49.608Z,23
2019-01-13T18:02:54.796Z,23.1
2019-01-13T18:08:04.132Z,23
2019-01-13T18:13:09.666Z,22.9
2019-01-13T18:18:14.645Z,19.6
2019-01-13T18:23:20.524Z,19.5
2019-01-13T18:28:25.798Z,20.9
2019-01-13T18:33:31.832Z,21.5
2019-01-13T18:38:40.233Z,22
2019-01-13T18:43:45.365Z,22.3
2019-01-13T18:48:53.548Z,22.5
2019-01-13T18:53:59.443Z,22.5
2019-01-13T18:59:03.329Z,22.6
2019-01-13T19:04:09.561Z,22.7
2019-01-13T19:09:14.654Z,22.8
2019-01-13T19:14:23.383Z,22.9
2019-01-13T19:19:29.167Z,23.1
2019-01-13T19:24:34.740Z,23.1
2019-01-13T19:29:40.405Z,23.1
2019-01-13T19:39:50.027Z,23.2
2019-01-13T19:44:55.625Z,23.2
2019-01-13T19:49:59.853Z,23.2
2019-01-13T19:55:05.758Z,23.2
2019-01-13T20:00:10.885Z,23.2
2019-01-13T20:05:16.710Z,23.3
2019-01-13T20:10:22.557Z,23.3
2019-01-13T20:15:28.379Z,23.2
2019-01-13T20:20:33.636Z,23.2
2019-01-13T20:25:39.697Z,23.2
2019-01-13T20:30:45.296Z,23.2
2019-01-13T20:35:50.898Z,23.3
2019-01-13T20:40:59.164Z,23.3
2019-01-13T20:46:05.134Z,23.4
2019-01-13T20:51:11.107Z,23.4
2019-01-13T20:56:16.904Z,23.3
2019-01-13T21:01:21.959Z,23.4
2019-01-13T21:06:27.936Z,23.4
2019-01-13T21:11:34.715Z,23.4
2019-01-13T21:16:40.848Z,23.5
2019-01-13T21:21:46.376Z,23.6
2019-01-13T21:26:51.862Z,23.7
2019-01-13T21:31:57.394Z,23.7
2019-01-13T21:37:02.641Z,23.7
2019-01-13T21:42:08.416Z,23.8
2019-01-13T21:47:14.400Z,23.8
2019-01-13T21:52:20.114Z,23.8
2019-01-13T21:57:26.151Z,23.8
2019-01-13T22:02:31.849Z,23.7
2019-01-13T22:07:38.041Z,23.6
2019-01-13T22:12:43.761Z,23.7
2019-01-13T22:17:49.769Z,23.6
2019-01-13T22:22:54.919Z,23.6
2019-01-13T22:28:47.052Z,23.6
2019-01-13T22:33:52.423Z,23.6
2019-01-13T22:38:57.751Z,23.5
2019-01-13T22:44:03.442Z,23.4
2019-01-13T22:49:08.602Z,23.4
2019-01-13T22:54:14.302Z,23.4
2019-01-13T22:59:19.665Z,23.4
2019-01-13T23:04:24.765Z,23.4
2019-01-13T23:09:29.907Z,23.3
2019-01-13T23:14:34.912Z,23.3
2019-01-13T23:19:40.357Z,23.3
2019-01-13T23:24:45.417Z,23.3
2019-01-13T23:29:51.396Z,23.2
2019-01-13T23:34:56.714Z,23.2
2019-01-13T23:40:01.809Z,23.2
2019-01-13T23:45:07.592Z,23.1
2019-01-13T23:50:12.702Z,23.2
2019-01-13T23:55:17.863Z,23.2
